Vance, SC (29163)

2:14 PM EST on February 12, 2016 (GMT -0500)
Santee State Park-K9YS | | Change Station
CLOSE
Current Station
Personal Weather Station
Location: Santee, SC
Elevation: 135 ft
Nearby Weather Stations

Elev 135 ft 33.52 °N, 80.50 °W | Updated 7 seconds ago

Overcast
Overcast
49.7 °F
Feels Like 49 °F
N
4.0
Wind Variable Wind from NNW
Gusts 4.0 mph

Today
High -- | Low -- °F
--% Chance of Precip.
Yesterday
High -- | Low -- °F
Precip. -- in
Pressure 30.06 in
Visibility 10.0 miles
Clouds Overcast 1900 ft
Windchill 49 °F
Dew Point 38 °F
Humidity 65%
Rainfall 0.00 in
Snow Depth Not available.
7:09 AM 6:03 PM
Waxing Crescent, 23% visible
METAR KMNI 121855Z AUTO 33009KT 10SM OVC019 07/M01 A3006 RMK AO2 LTG DSNT E AND SE
Pressure 30.06 in
Visibility 10.0 miles
Clouds Overcast 1900 ft
Windchill 49 °F
Dew Point 38 °F
Humidity 65%
Rainfall 0.00 in
Snow Depth Not available.
7:09 AM 6:03 PM
Waxing Crescent, 23% visible
METAR KMNI 121855Z AUTO 33009KT 10SM OVC019 07/M01 A3006 RMK AO2 LTG DSNT E AND SE

10-Day Weather Forecast

Almanac

Astronomy

Feb. 12, 2016 Rise Set
Actual Time
Civil Twilight
Nautical Twilight
Astronomical Twilight
Moon
Length of Visible Light
Length of Day
Tomorrow will be .
, % of the Moon is Illuminated

Today's Extremes

State Highs State Lows

Community

WunderPhotos

Upload Photos

1,892,376 photos uploaded!

WunderBlog® & News

Nearby

Air Quality

  Air Quality AQ Index Pollutant
Not available.

Snow Depth

Station Depth Elevation

Earthquake Activity

City Distance Mag. Time & Date
Minimum magnitude displayed is 2.5.

Coastal Water Temperatures

Place Temperature

Stations

Nearby Weather Stations

Station Location Temp. Windchill Dew Point Humidity Wind Precip. Elev Updated Type
                   

Watches & Warnings

There are currently no watches in effect.